Time;durP1;ratioP1;P1;durP2;ratioP2;P2;SDS_P1;SDS_P2;PMS_P1;PMS_P2;Temp;Humidity;BMP_temperature;BMP_pressure;BME280_temperature;BME280_humidity;BME280_pressure;Samples;Min_cycle;Max_cycle;Signal;HPM_P1;HPM_P2
2022/11/21 00:01:36;;;;;;;28.40;13.95;;;2.90;83.10;;;;;;9177769;19;19959;-69
2022/11/21 00:04:40;;;;;;;29.30;14.63;;;3.00;83.00;;;;;;9179578;19;20763;-69
2022/11/21 00:07:44;;;;;;;;;;;2.90;83.10;;;;;;9180549;19;20018;-69
2022/11/21 00:10:49;;;;;;;33.88;15.20;;;2.90;83.10;;;;;;9176758;19;20091;-69
2022/11/21 00:13:52;;;;;;;35.45;17.23;;;3.00;83.10;;;;;;9178112;19;20018;-69
2022/11/21 00:16:58;;;;;;;28.10;15.25;;;3.00;83.10;;;;;;9177907;19;20534;-69
2022/11/21 00:20:02;;;;;;;30.50;14.95;;;3.00;83.10;;;;;;9177934;19;20037;-69
2022/11/21 00:23:05;;;;;;;30.33;14.48;;;3.00;83.10;;;;;;9179268;19;20798;-69
2022/11/21 00:26:10;;;;;;;;;;;3.00;83.20;;;;;;9176256;19;20044;-69
2022/11/21 00:29:13;;;;;;;;;;;3.00;83.20;;;;;;9180167;19;19984;-69
2022/11/21 00:32:19;;;;;;;19.25;9.95;;;3.00;83.70;;;;;;9177191;19;20268;-69
2022/11/21 00:35:23;;;;;;;27.45;13.45;;;3.00;83.00;;;;;;9174311;19;20052;-69
2022/11/21 00:38:27;;;;;;;;;;;3.00;83.10;;;;;;9174562;19;20052;-69
2022/11/21 00:41:31;;;;;;;32.92;15.65;;;3.00;83.10;;;;;;9173286;19;19946;-69
2022/11/21 00:44:35;;;;;;;43.83;18.50;;;3.00;83.10;;;;;;9173060;19;20014;-69
2022/11/21 00:47:40;;;;;;;36.55;17.23;;;3.00;83.10;;;;;;9174893;19;20616;-70
2022/11/21 00:50:44;;;;;;;41.42;19.90;;;3.00;83.20;;;;;;9176775;19;20399;-70
2022/11/21 00:53:48;;;;;;;40.33;19.20;;;3.00;83.30;;;;;;9173295;19;20361;-69
2022/11/21 00:56:52;;;;;;;38.63;19.13;;;3.00;83.20;;;;;;9177709;19;20017;-70
2022/11/21 00:59:55;;;;;;;;;;;3.00;83.20;;;;;;9179278;19;20074;-69
2022/11/21 01:03:02;;;;;;;41.13;18.70;;;3.00;83.20;;;;;;9177813;19;19930;-69
2022/11/21 01:06:08;;;;;;;40.28;20.25;;;3.00;83.20;;;;;;9177752;19;20099;-69
2022/11/21 01:09:12;;;;;;;43.88;19.48;;;3.00;83.20;;;;;;9177267;19;20042;-70
2022/11/21 01:12:15;;;;;;;;;;;3.00;83.30;;;;;;9174437;19;20011;-69
2022/11/21 01:15:19;;;;;;;44.85;20.83;;;3.00;83.30;;;;;;9177734;19;19911;-70
2022/11/21 01:18:25;;;;;;;;;;;3.00;83.20;;;;;;9179948;19;20088;-69
2022/11/21 01:21:30;;;;;;;36.47;18.10;;;3.00;83.20;;;;;;9173101;19;19946;-70
2022/11/21 01:24:34;;;;;;;38.72;18.98;;;3.00;83.20;;;;;;9177540;19;20086;-70
2022/11/21 01:27:37;;;;;;;;;;;3.00;83.30;;;;;;9178627;19;20015;-69
2022/11/21 01:30:41;;;;;;;41.67;20.30;;;3.00;83.40;;;;;;9173047;19;19940;-68
2022/11/21 01:33:47;;;;;;;37.45;17.42;;;3.00;83.30;;;;;;9176856;19;20022;-69
2022/11/21 01:36:51;;;;;;;40.70;17.95;;;3.00;83.30;;;;;;9176583;19;20074;-69
2022/11/21 01:39:54;;;;;;;;;;;2.90;83.40;;;;;;9177398;19;20454;-69
2022/11/21 01:43:04;;;;;;;37.07;18.37;;;3.00;83.40;;;;;;9176181;19;20269;-69
2022/11/21 01:46:14;;;;;;;38.05;17.45;;;3.00;83.30;;;;;;9176739;19;20098;-69
2022/11/21 01:49:22;;;;;;;39.20;19.15;;;3.00;83.30;;;;;;9176190;19;20371;-70
2022/11/21 01:52:29;;;;;;;42.03;19.90;;;3.00;83.30;;;;;;9174486;19;20011;-70
2022/11/21 01:55:35;;;;;;;40.28;19.45;;;3.00;83.30;;;;;;9170612;19;20424;-69
2022/11/21 01:58:40;;;;;;;44.03;19.63;;;3.00;83.40;;;;;;9175812;19;20046;-70
2022/11/21 02:01:45;;;;;;;45.60;20.02;;;3.00;83.40;;;;;;9175937;19;20490;-68
2022/11/21 02:04:52;;;;;;;43.50;20.70;;;3.00;83.40;;;;;;9175067;19;20578;-70
2022/11/21 02:08:00;;;;;;;42.13;19.60;;;3.00;83.40;;;;;;9175995;19;20019;-69
2022/11/21 02:11:13;;;;;;;38.85;19.58;;;3.00;83.40;;;;;;9173305;19;20022;-70
2022/11/21 02:14:17;;;;;;;46.53;20.25;;;3.00;83.50;;;;;;9175609;19;20018;-69
2022/11/21 02:17:20;;;;;;;44.85;20.17;;;3.00;83.40;;;;;;9172602;19;20089;-69
2022/11/21 02:20:27;;;;;;;;;;;3.00;83.40;;;;;;9174493;19;20037;-69
2022/11/21 02:23:38;;;;;;;41.92;19.88;;;3.00;83.40;;;;;;9175119;19;19919;-70
2022/11/21 02:26:45;;;;;;;43.03;19.63;;;3.00;83.30;;;;;;9175313;19;20025;-70
2022/11/21 02:29:49;;;;;;;44.00;20.67;;;3.00;83.40;;;;;;9173982;19;20014;-69
2022/11/21 02:32:52;;;;;;;;;;;3.00;83.40;;;;;;9177117;19;20031;-69
2022/11/21 02:36:01;;;;;;;39.70;20.05;;;3.00;83.50;;;;;;9180889;19;20339;-69
2022/11/21 02:39:06;;;;;;;39.30;19.48;;;3.00;83.40;;;;;;9182862;19;20105;-69
2022/11/21 02:42:20;;;;;;;42.53;20.15;;;3.00;83.40;;;;;;9182610;19;20018;-69
2022/11/21 02:45:29;;;;;;;42.72;20.75;;;3.00;83.40;;;;;;9183035;19;20110;-70
2022/11/21 02:48:33;;;;;;;43.40;19.27;;;3.00;83.40;;;;;;9182944;19;20406;-70
2022/11/21 02:51:37;;;;;;;44.33;20.20;;;3.00;83.50;;;;;;9180216;19;20059;-69
2022/11/21 02:54:40;;;;;;;;;;;3.00;83.50;;;;;;9178561;19;20493;-69
2022/11/21 02:57:46;;;;;;;34.83;14.35;;;3.00;83.40;;;;;;9181085;19;19923;-70
2022/11/21 03:00:50;;;;;;;44.42;19.98;;;3.00;83.30;;;;;;9182247;19;20022;-70
2022/11/21 03:03:53;;;;;;;;;;;3.00;83.30;;;;;;9183897;19;20031;-69
2022/11/21 03:06:57;;;;;;;47.87;21.73;;;3.00;83.40;;;;;;9182550;19;19921;-70
2022/11/21 03:10:01;;;;;;;42.05;20.00;;;3.00;83.40;;;;;;9180606;19;20439;-69
2022/11/21 03:13:06;;;;;;;;;;;3.00;83.50;;;;;;9181120;19;20015;-69
2022/11/21 03:16:10;;;;;;;39.70;20.45;;;3.00;83.50;;;;;;9181526;19;19994;-68
2022/11/21 03:19:14;;;;;;;40.83;19.50;;;3.00;83.40;;;;;;9181209;19;20486;-69
2022/11/21 03:22:17;;;;;;;36.60;18.83;;;3.00;83.40;;;;;;9182224;19;20015;-70
2022/11/21 03:25:21;;;;;;;;;;;3.00;83.50;;;;;;9182684;19;20010;-68
2022/11/21 03:28:27;;;;;;;31.92;15.00;;;3.00;83.50;;;;;;9181766;19;20373;-70
2022/11/21 03:31:30;;;;;;;43.17;20.60;;;3.00;83.40;;;;;;9180121;19;20037;-70
2022/11/21 03:34:34;;;;;;;40.35;19.85;;;3.00;83.50;;;;;;9181780;19;20022;-70
2022/11/21 03:37:38;;;;;;;;;;;3.00;83.50;;;;;;9182167;19;20704;-69
2022/11/21 03:40:41;;;;;;;39.83;19.38;;;3.00;83.60;;;;;;9181749;19;19922;-70
2022/11/21 03:43:47;;;;;;;45.95;20.17;;;3.00;83.50;;;;;;9179843;19;20015;-70
2022/11/21 03:46:51;;;;;;;41.85;20.15;;;3.00;83.60;;;;;;9178506;19;20029;-69
2022/11/21 03:49:54;;;;;;;;;;;3.00;83.60;;;;;;9181638;19;20463;-70
2022/11/21 03:52:58;;;;;;;38.15;18.40;;;3.00;83.60;;;;;;9178721;19;19985;-70
2022/11/21 03:56:01;;;;;;;43.83;20.00;;;3.00;83.50;;;;;;9175833;19;20019;-70
2022/11/21 03:59:07;;;;;;;40.90;19.13;;;3.00;83.60;;;;;;9180934;19;20014;-69
2022/11/21 04:02:11;;;;;;;37.88;18.08;;;3.00;83.60;;;;;;9180799;19;20014;-69
2022/11/21 04:05:15;;;;;;;43.05;19.65;;;3.00;83.60;;;;;;9179710;19;20024;-71
2022/11/21 04:08:18;;;;;;;;;;;3.00;83.70;;;;;;9180640;19;20483;-69
2022/11/21 04:11:23;;;;;;;41.67;19.17;;;3.00;83.70;;;;;;9177812;19;20316;-69
2022/11/21 04:14:29;;;;;;;38.75;18.42;;;3.00;83.60;;;;;;9179886;19;20010;-70
2022/11/21 04:17:33;;;;;;;40.58;18.45;;;3.00;83.60;;;;;;9179543;19;20010;-71
2022/11/21 04:20:36;;;;;;;;;;;3.00;84.30;;;;;;9181342;19;20014;-70
2022/11/21 04:23:40;;;;;;;38.00;18.27;;;3.00;83.70;;;;;;9179906;19;19922;-69
2022/11/21 04:26:43;;;;;;;;;;;3.00;83.50;;;;;;9180659;19;20035;-69
2022/11/21 04:29:49;;;;;;;45.35;19.30;;;3.00;83.50;;;;;;9179965;19;19939;-70
2022/11/21 04:32:53;;;;;;;38.60;18.90;;;3.00;83.50;;;;;;9178762;19;20037;-69
2022/11/21 04:35:57;;;;;;;36.58;18.05;;;3.00;83.50;;;;;;9177156;19;20035;-69
2022/11/21 04:39:01;;;;;;;38.28;17.77;;;3.00;83.50;;;;;;9179348;19;20360;-70
2022/11/21 04:42:05;;;;;;;42.83;19.15;;;3.00;83.90;;;;;;9178267;19;20018;-70
2022/11/21 04:45:11;;;;;;;38.10;17.70;;;3.00;83.50;;;;;;9179460;19;20038;-69
2022/11/21 04:48:15;;;;;;;39.10;20.30;;;3.00;83.60;;;;;;9178855;19;20016;-70
2022/11/21 04:51:18;;;;;;;38.13;19.08;;;3.00;83.50;;;;;;9176577;19;20490;-69
2022/11/21 04:54:22;;;;;;;33.72;16.67;;;3.00;83.50;;;;;;9174837;19;20019;-69
2022/11/21 04:57:28;;;;;;;33.85;18.65;;;3.00;83.50;;;;;;9176964;19;20059;-69
2022/11/21 05:00:34;;;;;;;37.95;17.98;;;3.00;83.50;;;;;;9179147;19;20492;-70
2022/11/21 05:03:38;;;;;;;41.53;19.10;;;2.90;83.50;;;;;;9178038;19;20007;-71
2022/11/21 05:06:41;;;;;;;38.58;19.10;;;2.90;83.50;;;;;;9174770;19;20023;-69
2022/11/21 05:09:45;;;;;;;;;;;2.90;83.50;;;;;;9179078;19;20814;-70
2022/11/21 05:16:08;;;;;;;38.20;17.92;;;2.90;83.50;;;;;;9176532;19;20019;-69
2022/11/21 05:19:11;;;;;;;43.47;20.10;;;2.90;83.50;;;;;;9177299;19;20010;-69
2022/11/21 05:22:15;;;;;;;42.28;19.08;;;2.90;83.60;;;;;;9178933;19;20019;-69
2022/11/21 05:25:19;;;;;;;34.50;18.38;;;2.80;83.50;;;;;;9177166;19;20526;-69
2022/11/21 05:28:23;;;;;;;36.22;17.63;;;2.80;83.60;;;;;;9176999;19;20063;-69
2022/11/21 05:31:28;;;;;;;34.47;17.55;;;2.80;83.60;;;;;;9175296;19;20019;-69
2022/11/21 05:34:32;;;;;;;32.17;16.90;;;2.80;83.60;;;;;;9176922;19;20022;-70
2022/11/21 05:37:36;;;;;;;34.13;17.35;;;2.80;83.60;;;;;;9177210;19;20133;-70
2022/11/21 05:40:40;;;;;;;30.17;16.02;;;2.70;83.50;;;;;;9177578;19;20088;-69
2022/11/21 05:43:46;;;;;;;31.00;15.98;;;2.80;83.60;;;;;;9176607;19;20129;-69
2022/11/21 05:46:52;;;;;;;30.77;16.65;;;2.70;83.60;;;;;;9177576;19;20018;-70
2022/11/21 05:49:56;;;;;;;31.95;16.95;;;2.70;83.60;;;;;;9177245;19;20011;-70
2022/11/21 05:53:03;;;;;;;31.05;17.13;;;2.70;83.60;;;;;;9173057;19;20019;-69
2022/11/21 05:56:08;;;;;;;36.20;18.05;;;2.70;83.60;;;;;;9176545;19;20019;-69
2022/11/21 05:59:12;;;;;;;36.25;18.60;;;2.70;83.60;;;;;;9176403;19;20015;-69
2022/11/21 06:05:35;;;;;;;30.77;16.75;;;2.60;83.60;;;;;;9176601;19;20015;-70
2022/11/21 06:08:39;;;;;;;;;;;2.60;83.70;;;;;;9183086;19;20018;-70
2022/11/21 06:11:43;;;;;;;34.92;17.63;;;2.60;83.70;;;;;;9179928;19;19941;-69
2022/11/21 06:14:46;;;;;;;32.15;17.35;;;2.60;83.70;;;;;;9184064;19;20015;-69
2022/11/21 06:17:52;;;;;;;;;;;2.50;84.30;;;;;;9184331;19;20023;-69
2022/11/21 06:21:01;;;;;;;33.40;17.10;;;2.50;83.70;;;;;;9181338;19;19927;-69
2022/11/21 06:24:06;;;;;;;35.30;17.85;;;2.50;83.70;;;;;;9184239;19;20014;-69
2022/11/21 06:27:10;;;;;;;37.47;18.27;;;2.50;83.70;;;;;;9182917;19;20030;-69
2022/11/21 06:30:14;;;;;;;;;;;2.50;83.80;;;;;;9184211;19;20011;-69
2022/11/21 06:33:27;;;;;;;35.90;17.83;;;2.40;83.80;;;;;;9183052;19;19919;-69
2022/11/21 06:36:30;;;;;;;38.53;18.48;;;2.40;83.70;;;;;;9183361;19;20018;-69
2022/11/21 06:39:34;;;;;;;38.17;19.52;;;2.40;83.80;;;;;;9182988;19;20018;-70
2022/11/21 06:42:38;;;;;;;42.17;20.23;;;2.40;83.80;;;;;;9182732;19;20019;-69
2022/11/21 06:45:42;;;;;;;42.42;19.13;;;2.40;83.80;;;;;;9183231;19;20025;-68
2022/11/21 06:48:47;;;;;;;;;;;2.40;83.80;;;;;;9183739;19;20021;-69
2022/11/21 06:51:51;;;;;;;45.08;20.35;;;2.40;83.90;;;;;;9181541;19;19952;-69
2022/11/21 06:54:55;;;;;;;43.97;20.70;;;2.40;83.80;;;;;;9178133;19;20002;-70
2022/11/21 06:57:59;;;;;;;51.35;21.85;;;2.30;83.80;;;;;;9181158;19;20022;-68
2022/11/21 07:01:06;;;;;;;50.10;22.48;;;2.30;83.90;;;;;;9181790;19;20073;-70
2022/11/21 07:04:11;;;;;;;56.65;23.77;;;2.30;83.90;;;;;;9182508;19;20019;-69
2022/11/21 07:07:15;;;;;;;53.97;22.20;;;2.30;83.90;;;;;;9182200;19;20015;-69
2022/11/21 07:10:19;;;;;;;;;;;2.30;83.90;;;;;;9181948;19;20031;-69
2022/11/21 07:13:23;;;;;;;65.85;25.83;;;2.30;83.90;;;;;;9176460;19;19942;-69
2022/11/21 07:16:30;;;;;;;56.08;23.83;;;2.30;83.90;;;;;;9170994;19;20373;-69
2022/11/21 07:19:36;;;;;;;55.95;22.30;;;2.30;83.90;;;;;;9174347;19;20502;-70
2022/11/21 07:22:44;;;;;;;62.10;21.98;;;2.30;83.90;;;;;;9174951;19;20018;-70
2022/11/21 07:25:47;;;;;;;52.28;22.20;;;2.30;83.90;;;;;;9171700;19;20530;-69
2022/11/21 07:28:51;;;;;;;56.60;22.70;;;2.30;84.00;;;;;;9175585;19;20486;-69
2022/11/21 07:31:55;;;;;;;53.92;23.23;;;2.40;84.00;;;;;;9173368;19;20064;-69
2022/11/21 07:35:01;;;;;;;63.00;24.38;;;2.40;84.10;;;;;;9180344;19;20022;-70
2022/11/21 07:38:05;;;;;;;54.53;22.05;;;2.40;84.00;;;;;;9180937;19;20039;-69
2022/11/21 07:41:09;;;;;;;56.45;23.20;;;2.40;84.10;;;;;;9178563;19;20015;-69
2022/11/21 07:44:13;;;;;;;53.90;22.67;;;2.40;84.00;;;;;;9181883;19;20018;-69
2022/11/21 07:47:16;;;;;;;;;;;2.40;84.10;;;;;;9181875;19;20362;-69
2022/11/21 07:50:22;;;;;;;42.13;19.37;;;2.40;84.10;;;;;;9179630;19;20328;-69
2022/11/21 07:53:26;;;;;;;46.97;19.60;;;2.40;83.90;;;;;;9170995;19;20388;-70
2022/11/21 07:56:29;;;;;;;39.35;18.52;;;2.40;83.90;;;;;;9179766;19;20023;-69
2022/11/21 07:59:33;;;;;;;;;;;2.40;84.00;;;;;;9179346;19;20010;-69
2022/11/21 08:02:37;;;;;;;41.13;19.13;;;2.40;84.00;;;;;;9179820;19;19938;-69
2022/11/21 08:05:44;;;;;;;44.58;18.42;;;2.40;83.90;;;;;;9180079;19;20182;-69
2022/11/21 08:08:48;;;;;;;40.85;18.67;;;2.40;84.00;;;;;;9180753;19;20018;-69
2022/11/21 08:11:53;;;;;;;33.92;16.40;;;2.40;84.00;;;;;;9177887;19;20018;-70
2022/11/21 08:14:56;;;;;;;;;;;2.40;84.00;;;;;;9181116;19;20482;-70
2022/11/21 08:18:07;;;;;;;31.45;16.15;;;2.40;84.00;;;;;;9179742;19;19922;-70
2022/11/21 08:21:13;;;;;;;40.58;15.15;;;2.40;83.90;;;;;;9179661;19;20370;-69
2022/11/21 08:24:23;;;;;;;32.85;15.75;;;2.40;84.00;;;;;;9179637;19;20021;-70
2022/11/21 08:27:26;;;;;;;35.63;16.77;;;2.40;84.00;;;;;;9179058;19;20023;-70
2022/11/21 08:30:30;;;;;;;36.33;17.85;;;2.40;84.10;;;;;;9175719;19;20018;-69
2022/11/21 08:33:34;;;;;;;35.05;17.52;;;2.40;84.10;;;;;;9179195;19;20525;-70
2022/11/21 08:36:40;;;;;;;37.63;17.23;;;2.40;84.10;;;;;;9178501;19;20050;-69
2022/11/21 08:39:44;;;;;;;32.15;16.55;;;2.40;84.20;;;;;;9178877;19;20018;-69
2022/11/21 08:42:47;;;;;;;30.63;15.43;;;2.40;84.20;;;;;;9179137;19;20025;-69
2022/11/21 08:45:51;;;;;;;34.28;17.30;;;2.40;84.20;;;;;;9178852;19;20035;-69
2022/11/21 08:48:55;;;;;;;31.30;16.13;;;2.40;84.20;;;;;;9179006;19;20031;-70
2022/11/21 08:52:01;;;;;;;35.83;16.55;;;2.40;84.20;;;;;;9174564;19;20039;-70
2022/11/21 08:55:05;;;;;;;36.50;17.10;;;2.50;84.30;;;;;;9173733;19;20108;-69
2022/11/21 08:58:08;;;;;;;38.08;17.15;;;2.50;84.40;;;;;;9176557;19;20029;-69
2022/11/21 09:01:12;;;;;;;38.95;17.60;;;2.50;84.30;;;;;;9178148;19;20082;-70
2022/11/21 09:04:16;;;;;;;43.45;18.35;;;2.50;84.30;;;;;;9178633;19;20014;-69
2022/11/21 09:07:21;;;;;;;40.75;18.25;;;2.50;84.40;;;;;;9178650;19;20022;-69
2022/11/21 09:10:26;;;;;;;45.58;19.58;;;2.50;84.40;;;;;;9177252;19;20488;-69
2022/11/21 09:13:29;;;;;;;47.67;19.98;;;2.50;84.40;;;;;;9177551;19;20649;-70
2022/11/21 09:19:50;;;;;;;42.72;18.92;;;2.50;84.40;;;;;;9177913;19;19934;-70
2022/11/21 09:22:55;;;;;;;;;;;2.60;84.30;;;;;;9178760;19;20010;-70
2022/11/21 09:26:01;;;;;;;42.80;18.02;;;2.50;84.30;;;;;;9176744;19;19925;-70
2022/11/21 09:29:04;;;;;;;42.42;18.50;;;2.60;84.30;;;;;;9177149;19;20022;-70
2022/11/21 09:32:08;;;;;;;;;;;2.60;84.40;;;;;;9176056;19;20420;-69
2022/11/21 09:35:11;;;;;;;39.95;17.35;;;2.60;84.50;;;;;;9176771;19;19926;-70
2022/11/21 09:38:17;;;;;;;36.22;17.98;;;2.60;84.40;;;;;;9177404;19;20122;-69
2022/11/21 09:45:13;;;;;;;38.47;17.70;;;2.70;84.50;;;;;;9176997;19;20019;-70
2022/11/21 09:48:21;;;;;;;36.53;17.73;;;2.70;84.60;;;;;;9170862;19;20077;-69
2022/11/21 09:51:27;;;;;;;40.63;17.30;;;2.70;84.60;;;;;;9173585;19;20580;-69
2022/11/21 09:54:36;;;;;;;37.95;18.27;;;2.70;84.70;;;;;;9171552;19;20018;-69
2022/11/21 09:57:39;;;;;;;39.15;18.67;;;2.80;84.60;;;;;;9177300;19;20011;-70
2022/11/21 10:00:43;;;;;;;41.90;19.02;;;2.80;84.70;;;;;;9176473;19;20393;-69
2022/11/21 10:03:49;;;;;;;44.35;19.77;;;2.80;84.60;;;;;;9175816;19;20346;-70
2022/11/21 10:07:02;;;;;;;40.42;18.88;;;2.90;84.70;;;;;;9174838;19;20018;-69
2022/11/21 10:10:24;;;;;;;40.95;18.08;;;2.90;84.80;;;;;;9175615;19;20010;-70
2022/11/21 10:13:43;;;;;;;37.10;16.05;;;2.90;84.80;;;;;;9172135;19;20026;-69
2022/11/21 10:16:56;;;;;;;36.67;16.38;;;3.00;84.80;;;;;;9175186;19;20018;-70
2022/11/21 10:20:18;;;;;;;27.63;11.63;;;3.00;84.80;;;;;;9174587;19;20015;-69
2022/11/21 10:23:36;;;;;;;33.65;15.65;;;3.00;84.70;;;;;;9174200;19;20031;-69
2022/11/21 10:26:51;;;;;;;38.20;18.13;;;3.00;84.70;;;;;;9173948;19;20118;-70
2022/11/21 10:30:00;;;;;;;38.25;18.15;;;3.10;84.80;;;;;;9174858;19;20051;-70
2022/11/21 10:33:06;;;;;;;34.70;16.55;;;3.10;84.70;;;;;;9171702;19;20051;-70
2022/11/21 10:36:19;;;;;;;38.67;16.85;;;3.10;84.80;;;;;;9175067;19;20463;-70
2022/11/21 10:39:34;;;;;;;38.33;17.80;;;3.10;84.80;;;;;;9173838;19;20029;-70
2022/11/21 10:42:45;;;;;;;35.90;17.73;;;3.20;84.90;;;;;;9172891;19;20014;-70
2022/11/21 10:45:48;;;;;;;39.42;16.67;;;3.20;84.90;;;;;;9173843;19;20015;-70
2022/11/21 10:48:59;;;;;;;36.92;17.08;;;3.20;84.90;;;;;;9174233;19;20019;-70
2022/11/21 10:52:08;;;;;;;35.67;15.93;;;3.20;84.90;;;;;;9172565;19;20480;-70
2022/11/21 10:55:13;;;;;;;35.97;17.00;;;3.30;85.00;;;;;;9174123;19;20034;-69
2022/11/21 10:58:20;;;;;;;38.60;17.20;;;3.30;85.00;;;;;;9182796;19;20011;-70
2022/11/21 11:01:27;;;;;;;32.58;15.25;;;3.30;85.00;;;;;;9182345;19;20006;-70
2022/11/21 11:04:33;;;;;;;35.58;16.80;;;3.30;85.00;;;;;;9182650;19;20015;-68
2022/11/21 11:08:01;;;;;;;30.70;16.00;;;3.30;85.10;;;;;;9183195;19;20019;-69
2022/11/21 11:11:08;;;;;;;34.15;15.52;;;3.40;85.20;;;;;;9181797;19;20022;-69
2022/11/21 11:14:17;;;;;;;33.50;15.73;;;3.40;85.10;;;;;;9180708;19;20019;-69
2022/11/21 11:17:29;;;;;;;33.67;15.77;;;3.50;85.20;;;;;;9179978;19;20014;-68
2022/11/21 11:20:37;;;;;;;42.17;19.60;;;3.50;85.20;;;;;;9181394;19;20639;-68
2022/11/21 11:23:40;;;;;;;32.30;15.02;;;3.50;85.20;;;;;;9179579;19;20011;-69
2022/11/21 11:26:52;;;;;;;25.15;13.48;;;3.60;85.30;;;;;;9180748;19;20433;-69
2022/11/21 11:30:05;;;;;;;29.05;13.90;;;3.60;85.30;;;;;;9180879;19;20596;-69
2022/11/21 11:33:37;;;;;;;27.40;12.98;;;3.60;85.30;;;;;;9179304;19;20015;-69
2022/11/21 11:37:03;;;;;;;27.33;12.52;;;3.60;85.30;;;;;;9179893;19;20022;-69
2022/11/21 11:40:19;;;;;;;30.10;11.85;;;3.70;85.30;;;;;;9178122;19;20021;-69
2022/11/21 11:50:32;;;;;;;27.70;14.30;;;3.80;85.30;;;;;;9179106;19;20014;-69
2022/11/21 11:53:41;;;;;;;26.58;13.27;;;3.80;85.30;;;;;;9171733;19;20471;-70
2022/11/21 11:56:46;;;;;;;26.73;13.02;;;3.80;85.40;;;;;;9180345;19;20018;-69
2022/11/21 11:59:59;;;;;;;32.60;13.68;;;3.80;85.40;;;;;;9178968;19;20037;-69
2022/11/21 12:03:12;;;;;;;35.95;15.27;;;3.90;85.50;;;;;;9178051;19;20010;-69
2022/11/21 12:06:20;;;;;;;35.45;13.82;;;3.90;85.50;;;;;;9180250;19;20034;-69
2022/11/21 12:09:31;;;;;;;36.53;16.55;;;4.00;85.60;;;;;;9179168;19;20022;-70
2022/11/21 12:12:39;;;;;;;34.83;14.68;;;4.00;85.60;;;;;;9177076;19;20486;-70
2022/11/21 12:15:51;;;;;;;38.78;17.33;;;4.00;85.60;;;;;;9174915;19;20022;-70
2022/11/21 12:19:03;;;;;;;38.00;16.08;;;4.10;85.70;;;;;;9174725;19;20097;-70
2022/11/21 12:22:10;;;;;;;34.33;15.45;;;4.10;85.70;;;;;;9174724;19;20023;-69
2022/11/21 12:25:15;;;;;;;37.38;16.63;;;4.20;85.70;;;;;;9175266;19;20677;-69
2022/11/21 12:28:27;;;;;;;38.72;16.95;;;4.20;85.80;;;;;;9174847;19;20030;-69
2022/11/21 12:31:40;;;;;;;35.95;16.00;;;4.30;85.90;;;;;;9179139;19;20402;-69
2022/11/21 12:35:06;;;;;;;39.25;15.85;;;4.30;85.90;;;;;;9178139;19;20019;-69
2022/11/21 12:38:24;;;;;;;39.30;16.95;;;4.40;85.90;;;;;;9176884;19;20029;-69
2022/11/21 12:45:04;;;;;;;41.97;16.58;;;4.40;85.90;;;;;;9176723;19;20022;-69
2022/11/21 12:55:38;;;;;;;54.28;21.33;;;4.60;86.00;;;;;;9173447;19;20025;-69
2022/11/21 12:58:48;;;;;;;52.38;17.95;;;4.60;86.00;;;;;;9178655;19;20010;-69
2022/11/21 13:02:01;;;;;;;48.75;17.20;;;4.70;86.00;;;;;;9178515;19;20020;-70
2022/11/21 13:05:11;;;;;;;59.70;20.42;;;4.70;86.10;;;;;;9178889;19;20037;-69
2022/11/21 13:08:21;;;;;;;61.75;21.13;;;4.80;86.10;;;;;;9178871;19;20505;-69
2022/11/21 13:15:03;;;;;;;54.47;20.20;;;4.80;86.20;;;;;;9177898;19;20018;-68
2022/11/21 13:18:18;;;;;;;67.45;21.90;;;4.90;86.10;;;;;;9176592;19;20018;-69
2022/11/21 13:21:43;;;;;;;62.53;22.77;;;4.90;86.10;;;;;;9177313;19;20014;-69
2022/11/21 13:24:59;;;;;;;56.72;21.15;;;5.00;86.20;;;;;;9177202;19;20034;-69
2022/11/21 13:28:29;;;;;;;71.93;24.63;;;5.00;86.20;;;;;;9175845;19;20014;-68
2022/11/21 13:31:34;;;;;;;79.03;24.48;;;5.00;86.20;;;;;;9173160;19;20026;-69
2022/11/21 13:34:39;;;;;;;56.33;20.15;;;5.10;86.20;;;;;;9178018;19;20018;-69
2022/11/21 13:38:01;;;;;;;64.10;22.85;;;5.10;86.20;;;;;;9175592;19;20757;-69
2022/11/21 13:44:41;;;;;;;65.22;21.63;;;5.10;86.20;;;;;;9177119;19;20019;-69
2022/11/21 13:48:12;;;;;;;85.90;24.27;;;5.10;86.30;;;;;;9175118;19;20029;-68
2022/11/21 13:51:40;;;;;;;71.78;21.23;;;5.20;86.30;;;;;;9175194;19;20752;-68
2022/11/21 13:55:15;;;;;;;71.65;24.83;;;5.20;86.30;;;;;;9169782;19;20010;-69
2022/11/21 13:58:46;;;;;;;79.80;23.67;;;5.20;86.40;;;;;;9173345;19;20026;-69
2022/11/21 14:02:20;;;;;;;79.18;25.17;;;5.20;86.30;;;;;;9175386;19;20015;-68
2022/11/21 14:05:49;;;;;;;88.35;26.75;;;5.30;86.40;;;;;;9173328;19;20479;-69
2022/11/21 14:09:26;;;;;;;102.43;27.02;;;5.30;86.40;;;;;;9175257;19;20018;-69
2022/11/21 14:12:33;;;;;;;82.85;25.08;;;5.30;86.40;;;;;;9174120;19;20467;-68
2022/11/21 14:15:52;;;;;;;90.75;27.23;;;5.40;86.40;;;;;;9173944;19;20018;-69
2022/11/21 14:18:57;;;;;;;88.55;26.63;;;5.40;86.40;;;;;;9175646;19;20026;-69
2022/11/21 14:22:01;;;;;;;92.97;24.17;;;5.40;86.40;;;;;;9175422;19;20014;-68
2022/11/21 14:25:10;;;;;;;93.97;25.90;;;5.40;86.40;;;;;;9175087;19;20693;-69
2022/11/21 14:28:17;;;;;;;89.55;26.98;;;5.40;86.40;;;;;;9174989;19;20025;-69
2022/11/21 14:31:23;;;;;;;103.53;26.40;;;5.50;86.40;;;;;;9182590;19;20368;-69
2022/11/21 14:34:28;;;;;;;83.68;25.83;;;5.50;86.40;;;;;;9183549;19;20010;-69
2022/11/21 14:37:33;;;;;;;109.40;28.65;;;5.50;86.50;;;;;;9182532;19;20018;-69
2022/11/21 14:40:40;;;;;;;104.95;30.30;;;5.60;86.50;;;;;;9183247;19;20018;-69
2022/11/21 14:43:44;;;;;;;103.00;28.13;;;5.60;86.50;;;;;;9182602;19;20026;-69
2022/11/21 14:46:50;;;;;;;97.40;28.38;;;5.60;86.50;;;;;;9180542;19;20027;-69
2022/11/21 14:50:00;;;;;;;96.65;28.35;;;5.60;86.50;;;;;;9182782;19;20014;-69
2022/11/21 14:53:13;;;;;;;97.68;28.13;;;5.60;86.50;;;;;;9175502;19;20021;-68
2022/11/21 14:56:22;;;;;;;95.97;28.95;;;5.60;86.50;;;;;;9181958;19;20021;-69
2022/11/21 14:59:31;;;;;;;100.20;28.77;;;5.60;86.50;;;;;;9178033;19;20082;-69
2022/11/21 15:02:37;;;;;;;87.53;26.42;;;5.70;86.60;;;;;;9182263;19;20018;-69
2022/11/21 15:05:40;;;;;;;96.45;26.27;;;5.70;86.60;;;;;;9181601;19;20019;-69
2022/11/21 15:09:04;;;;;;;114.68;27.88;;;5.70;86.50;;;;;;9182065;19;20077;-69
2022/11/21 15:12:35;;;;;;;103.07;28.23;;;5.70;86.50;;;;;;9180541;19;20337;-69
2022/11/21 15:15:42;;;;;;;110.15;29.13;;;5.70;86.50;;;;;;9181925;19;20027;-69
2022/11/21 15:18:47;;;;;;;108.80;28.63;;;5.70;86.50;;;;;;9180058;19;20022;-69
2022/11/21 15:21:52;;;;;;;100.95;29.52;;;5.70;86.50;;;;;;9181543;19;20090;-69
2022/11/21 15:25:08;;;;;;;102.32;27.60;;;5.70;86.50;;;;;;9179887;19;20031;-69
2022/11/21 15:28:17;;;;;;;114.10;30.02;;;5.70;86.60;;;;;;9180301;19;20022;-69
2022/11/21 15:31:22;;;;;;;103.43;28.75;;;5.70;86.60;;;;;;9179801;19;20041;-69
2022/11/21 15:34:31;;;;;;;100.40;27.10;;;5.80;86.60;;;;;;9180199;19;20018;-69
2022/11/21 15:37:48;;;;;;;116.60;32.83;;;5.80;86.70;;;;;;9180945;19;20389;-69
2022/11/21 15:41:00;;;;;;;125.38;30.50;;;5.70;86.60;;;;;;9177838;19;20035;-69
2022/11/21 15:44:22;;;;;;;111.30;29.90;;;5.80;86.70;;;;;;9178808;19;20430;-69
2022/11/21 15:47:27;;;;;;;114.03;29.23;;;5.80;86.70;;;;;;9181265;19;20011;-69
2022/11/21 15:50:33;;;;;;;106.43;30.27;;;5.80;86.70;;;;;;9178865;19;20014;-69
2022/11/21 15:53:37;;;;;;;132.05;32.28;;;5.80;86.70;;;;;;9172169;19;20018;-69
2022/11/21 15:56:41;;;;;;;112.55;30.33;;;5.80;86.60;;;;;;9180276;19;20018;-69
2022/11/21 15:59:45;;;;;;;;;;;5.80;86.60;;;;;;9181767;19;20026;-69
2022/11/21 16:02:49;;;;;;;116.03;32.60;;;5.80;86.60;;;;;;9180403;19;19915;-69
2022/11/21 16:05:55;;;;;;;106.93;31.67;;;5.80;86.50;;;;;;9180132;19;20391;-69
2022/11/21 16:08:59;;;;;;;118.88;32.70;;;5.80;86.50;;;;;;9179520;19;20014;-69
2022/11/21 16:12:02;;;;;;;126.60;32.08;;;5.80;86.60;;;;;;9178808;19;20030;-68
2022/11/21 16:15:07;;;;;;;112.72;30.00;;;5.80;86.60;;;;;;9173221;19;20014;-69
2022/11/21 16:18:11;;;;;;;120.00;31.58;;;5.70;87.30;;;;;;9171010;19;20015;-69
2022/11/21 16:21:17;;;;;;;96.90;31.48;;;5.80;86.70;;;;;;9169301;19;20022;-69
2022/11/21 16:24:21;;;;;;;92.13;28.08;;;5.80;86.70;;;;;;9169540;19;20018;-69
2022/11/21 16:27:25;;;;;;;96.18;27.92;;;5.70;86.60;;;;;;9167139;19;20011;-70
2022/11/21 16:30:28;;;;;;;;;;;5.70;86.70;;;;;;9172045;19;20014;-69
2022/11/21 16:33:34;;;;;;;101.23;28.47;;;5.70;86.70;;;;;;9170409;19;19918;-69
2022/11/21 16:36:39;;;;;;;93.72;27.58;;;5.70;86.60;;;;;;9172591;19;20014;-69
2022/11/21 16:39:50;;;;;;;78.00;28.33;;;5.70;86.70;;;;;;9169432;19;20035;-68
2022/11/21 16:43:08;;;;;;;86.32;26.95;;;5.70;86.70;;;;;;9170164;19;20022;-69
2022/11/21 16:46:12;;;;;;;71.90;24.95;;;5.70;86.70;;;;;;9170537;19;20360;-68
2022/11/21 16:49:16;;;;;;;77.75;25.90;;;5.60;86.70;;;;;;9168583;19;20051;-68
2022/11/21 16:52:22;;;;;;;64.00;24.75;;;5.60;86.70;;;;;;9167691;19;20672;-69